Flight Track Log - Related Links

Times and Time Zones

All times are in EDT time to prevent confusion due to time zone crossing. See the FLG3862 flight status page for this flight to view local times or setup timezone preferences in your user account.

Time Position Orientation Groundspeed Altitude Reporting Facility
EDT Latitude Longitude Course Direction KTS MPH feet Rate Location/Type
Thu 01:03:00 PM 44.3814 -73.6316 253° West  Level FlightAware Approximate
Thu 01:03:13 PM 44.3900 -73.2069 260° West 245 282 8,100  Level Boston Center
Thu 01:04:00 PM 44.3593 -73.7518 259° West  Level FlightAware Approximate
Thu 01:04:15 PM 44.3769 -73.2969 259° West 245 282 10,600  Level Boston Center
Thu 01:05:00 PM 44.3419 -73.8736 259° West  Level FlightAware Approximate
Thu 01:05:13 PM 44.3614 -73.4011 258° West 262 302 11,800  Level Boston Center
Thu 01:06:00 PM 44.3221 -73.9946 256° West  Level FlightAware Approximate
Thu 01:06:13 PM 44.3458 -73.5142 259° West 290 334 13,000  Level Boston Center
Thu 01:07:00 PM 44.3000 -74.1148 256° West  Level FlightAware Approximate
Thu 01:07:14 PM 44.3281 -73.6386 259° West 320 368 14,200  Level Boston Center
Thu 01:08:14 PM 44.3144 -73.7400 259° West 333 383 15,200 1,150 Climbing Boston Center
Thu 01:09:14 PM 44.2939 -73.8817 259° West 338 389 16,500 1,261 Climbing Boston Center
Thu 01:10:13 PM 44.2736 -74.0086 257° West 338 389 17,700 1,008 Climbing Boston Center
Thu 01:11:13 PM 44.2572 -74.1328 260° West 333 383 18,500 900 Climbing Boston Center
Thu 01:12:13 PM 44.2364 -74.2628 257° West 333 383 19,500 992 Climbing Boston Center
Thu 01:13:14 PM 44.2156 -74.3953 258° West 338 389 20,500 984 Climbing Boston Center
Thu 01:14:15 PM 44.1967 -74.5250 259° West 344 396 21,500 908 Climbing Boston Center
Thu 01:15:13 PM 44.1775 -74.6547 258° West 344 396 22,300 763 Climbing Boston Center
Thu 01:16:13 PM 44.1583 -74.7869 259° West 349 402 23,000 600 Climbing Boston Center
Thu 01:17:13 PM 44.1386 -74.9222 259° West 360 414 23,500 496 Climbing Boston Center
Thu 01:18:14 PM 44.1169 -75.0603 258° West 360 414 24,000 496 Climbing Boston Center
Thu 01:19:14 PM 44.0947 -75.2008 258° West 366 421 24,500 496 Climbing Boston Center
Thu 01:20:15 PM 44.0728 -75.3386 258° West 371 427 25,000 496 Climbing Boston Center
Thu 01:21:15 PM 44.0503 -75.4761 257° West 371 427 25,500 513 Climbing Boston Center
Thu 01:22:12 PM 44.0297 -75.6194 259° West 371 427 26,000 508 Climbing Boston Center
Thu 01:23:13 PM 44.0050 -75.7597 256° West 376 433 26,500 496 Climbing Boston Center
Thu 01:24:13 PM 43.9822 -75.8997 257° West 376 433 27,000 451 Climbing Boston Center
Thu 01:25:26 PM 43.9614 -76.0342 258° West 371 427 27,500 493 Climbing Boston Center
Thu 01:26:27 PM 43.9497 -76.2039 265° West 371 427 28,100 504 Climbing Boston Center
Thu 01:27:25 PM 43.9500 -76.3164 270° West 365 420 28,500 508 Climbing Boston Center
Thu 01:28:25 PM 43.9439 -76.4919 267° West 365 420 29,100 539 Climbing Boston Center
Thu 01:30:12 PM 43.9333 -76.7333 267° West 370 426 30,000 323 Climbing Toronto Center
Thu 01:31:12 PM 43.9167 -76.8833 261° West 380 437 30,000  Level Toronto Center
Thu 01:32:12 PM 43.9167 -77.0333 270° West 390 449 30,000  Level Toronto Center
Thu 01:33:12 PM 43.9000 -77.1833 261° West 400 460 30,000  Level Toronto Center
Thu 01:34:12 PM 43.9000 -77.3333 270° West 400 460 30,000  Level Toronto Center
Thu 01:35:12 PM 43.9000 -77.5000 270° West 410 472 30,000  Level Toronto Center
Thu 01:36:12 PM 43.9000 -77.6500 270° West 410 472 30,000  Level Toronto Center
Thu 01:37:12 PM 43.8667 -77.8000 253° West 400 460 30,000  Level Toronto Center
Thu 01:38:12 PM 43.8333 -77.9500 253° West 400 460 30,000  Level Toronto Center
Thu 01:39:12 PM 43.8000 -78.1000 253° West 400 460 30,000  Level Toronto Center
Thu 01:40:12 PM 43.7667 -78.2500 253° West 400 460 30,000  Level Toronto Center
Thu 01:41:12 PM 43.7333 -78.3833 251° West 400 460 30,000  Level Toronto Center
Thu 01:42:12 PM 43.7167 -78.5500 262° West 400 460 30,000  Level Toronto Center
Thu 01:43:12 PM 43.6833 -78.6833 251° West 410 472 30,000  Level Toronto Center
Thu 01:44:12 PM 43.6333 -78.8333 245° Southwest 410 472 30,000  Level Toronto Center
Thu 01:45:12 PM 43.5667 -78.9667 235° Southwest 410 472 30,000  Level Toronto Center
Thu 01:46:12 PM 43.5000 -79.1000 235° Southwest 410 472 30,000  Level Toronto Center
Thu 01:47:12 PM 43.4500 -79.2167 239° Southwest 410 472 30,000  Level Toronto Center
Thu 01:48:12 PM 43.3833 -79.3833 241° Southwest 410 472 30,000 -150 Level Toronto Center
Thu 01:49:12 PM 43.3167 -79.5000 232° Southwest 420 483 29,700 -450 Descending Toronto Center
Thu 01:50:12 PM 43.2667 -79.6500 245° Southwest 430 495 29,100 -550 Descending Toronto Center
Thu 01:51:12 PM 43.2333 -79.8167 255° West 440 506 28,600 -500 Descending Toronto Center
Thu 01:52:12 PM 43.2000 -79.9833 255° West 440 506 28,100 -500 Descending Toronto Center
Thu 01:53:12 PM 43.1833 -80.1333 261° West 430 495 27,600 -500 Descending Toronto Center
Thu 01:54:12 PM 43.1500 -80.2667 251° West 390 449 27,100 -650 Descending Toronto Center
Thu 01:55:12 PM 43.1167 -80.4167 253° West 360 414 26,300 -800 Descending Toronto Center
Thu 01:56:12 PM 43.0833 -80.5167 245° Southwest 360 414 25,500 -800 Descending Toronto Center
Thu 01:57:12 PM 43.0500 -80.6667 253° West 350 403 24,700 -750 Descending Toronto Center
Thu 01:58:12 PM 43.0167 -80.7667 246° West 350 403 24,000 -800 Descending Toronto Center
Thu 01:59:12 PM 42.9667 -80.9167 246° West 350 403 23,100 -500 Descending Toronto Center
Thu 02:00:12 PM 42.9333 -81.0167 246° West 340 391 23,000 -50 Descending Toronto Center
Thu 02:01:12 PM 42.9000 -81.1333 249° West 340 391 23,000  Level Toronto Center
Thu 02:02:12 PM 42.8667 -81.2667 251° West 350 403 23,000  Level Toronto Center
Thu 02:03:12 PM 42.8333 -81.3833 249° West 350 403 23,000 -350 Level Toronto Center
Thu 02:04:12 PM 42.8000 -81.5167 251° West 350 403 22,300 -700 Descending Toronto Center
Thu 02:05:12 PM 42.7667 -81.6333 249° West 320 368 21,600 -750 Descending Toronto Center
Thu 02:06:12 PM 42.7500 -81.7167 255° West 290 334 20,800 -800 Descending Toronto Center
Thu 02:07:12 PM 42.7167 -81.8333 249° West 290 334 20,000 -639 Descending Toronto Center
Thu 02:08:14 PM 42.6856 -81.9475 250° West 292 336 19,500 -689 Descending Cleveland Center
Thu 02:09:14 PM 42.6572 -82.0456 249° West 292 336 18,600 -1,050 Descending Cleveland Center
Thu 02:10:14 PM 42.6267 -82.1464 248° West 292 336 17,400 -1,200 Descending Cleveland Center
Thu 02:11:14 PM 42.5983 -82.2417 248° West 287 330 16,200 -1,200 Descending Cleveland Center
Thu 02:11:29 PM 42.5936 -82.2697 257° West 266 306 15,900 -1,400 Descending Cleveland Center
Thu 02:12:14 PM 42.5719 -82.3311 244° Southwest 281 323 14,800 -1,459 Descending Cleveland Center
Thu 02:12:43 PM 42.5608 -82.3789 252° West 257 296 14,100 -1,400 Descending Cleveland Center
Thu 02:13:14 PM 42.5433 -82.4206 240° Southwest 269 310 13,400 -1,279 Descending Cleveland Center
Thu 02:13:44 PM 42.5322 -82.4681 252° West 249 287 12,800 -1,200 Descending Cleveland Center
Thu 02:14:14 PM 42.5192 -82.5072 246° West 264 304 12,200 -689 Descending Cleveland Center
Thu 02:14:45 PM 42.5081 -82.5519 251° West 239 275 12,100 -300 Descending Cleveland Center
Thu 02:15:14 PM 42.4886 -82.5881 234° Southwest 254 292 11,900 -689 Descending Cleveland Center
Thu 02:15:46 PM 42.4733 -82.6269 242° Southwest 241 277 11,400 -1,200 Descending Cleveland Center
Thu 02:16:14 PM 42.4561 -82.6600 235° Southwest 242 278 10,700 -1,082 Descending Cleveland Center
Thu 02:16:47 PM 42.4367 -82.6989 236° Southwest 238 274 10,300 -800 Descending Cleveland Center
Thu 02:17:14 PM 42.4172 -82.7347 234° Southwest 242 278 9,900 -1,180 Descending Cleveland Center
Thu 02:17:48 PM 42.3975 -82.7792 239° Southwest 225 259 9,100 2,100 Descending Cleveland Center
Thu 02:18:14 PM 42.3847 -82.8011 232° Southwest 237 273 12,000 -984 Climbing Cleveland Center
Thu 02:18:49 PM 42.3692 -82.8428 243° Southwest 204 235 8,100 -4,000 Descending Cleveland Center
Thu 02:19:14 PM 42.3583 -82.8619 233° Southwest 216 249 8,000  Descending Cleveland Center
Thu 02:19:56 PM 42.3472 -82.8953 246° West 138 159 8,100  Climbing Cleveland Center
Thu 02:20:14 PM 42.3386 -82.9119 235° Southwest 181 208 8,000  Descending Cleveland Center
Thu 02:20:52 PM 42.3256 -82.9422 240° Southwest 143 165 8,100  Climbing Cleveland Center
Thu 02:21:14 PM 42.3189 -82.9589 242° Southwest 159 183 8,000 -182 Descending Cleveland Center
Thu 02:21:58 PM 42.3058 -82.9922 242° Southwest 146 168 7,900 -480 Descending Cleveland Center
Thu 02:22:54 PM 42.3131 -83.0458 280° West 187 215 7,200 -410 Descending Cleveland Center
Thu 02:23:55 PM 42.3819 -83.0344 North 274 315 7,100 -49 Descending Cleveland Center
Thu 02:24:56 PM 42.4475 -82.9947 24° Northeast 259 298 7,100  Level Cleveland Center
Thu 02:25:57 PM 42.5128 -82.9578 23° Northeast 266 306 7,100  Level Cleveland Center
Thu 02:26:58 PM 42.5536 -82.9989 323° Northwest 181 208 7,100  Level Cleveland Center
Thu 02:27:59 PM 42.5483 -83.0464 261° West 125 144 7,100  Level Cleveland Center
Thu 02:29:00 PM 42.5267 -83.0850 233° Southwest 119 137 7,100  Level Cleveland Center

Login

Don't have an account? Register now (free) for customized features, flight alerts, and more!